Racecast

Webster City HS

Difficulty: +0.033 (5000m, the usual distance here) · 614 results · 539 athletes

All 5000m

Distances raced here

DistanceDifficultyResults FirstLast
5000m +0.033 614 2020-09-01 2022-08-29

Best speed ratings all distances

Boys

#AthleteRating TimeDistSchoolDate
1 Zach Sporaa 133.8 15:58.9 5000m North Polk (IA) 2022-08-29
2 Quinton Orr 132.3 16:16 5000m Humboldt (IA) 2020-09-01
3 Max Sporaa 128.4 16:39.3 5000m North Polk (IA) 2022-08-29
4 Alik McIlravy 126.6 16:53.6 5000m North Polk (IA) 2022-08-29
5 Austin Stierman 124.6 17:10.7 5000m North Polk (IA) 2022-08-29
6 Ethan Stierman 124.3 17:12.7 5000m North Polk (IA) 2022-08-29
7 Eric Wittrock 123.1 17:30 5000m Humboldt (IA) 2020-09-01
8 Caleb Hoins 122.8 17:26.1 5000m Waverly-Shell Rock (IA) 2022-08-29
9 Aaron Lursen 122.7 17:26.9 5000m St. Edmond Fort Dodge (IA) 2022-08-29
10 Ryan Stundahl 122.4 17:29.4 5000m Algona (IA) 2022-08-29
11 Caden Kueker 121.3 17:38.9 5000m Waverly-Shell Rock (IA) 2022-08-29
12 Austin Shoen 121.0 17:41.3 5000m Ballard (WA) 2022-08-29
13 Will Ford 121.0 17:48 5000m North Polk (IA) 2020-09-01
14 Ryan Madden 120.1 17:49.5 5000m Fort Dodge (IA) 2022-08-29
15 Seth Pencook 119.3 17:56.4 5000m Ballard (WA) 2022-08-29
16 Gavin Weber 119.2 17:57.5 5000m Algona (IA) 2022-08-29
17 Jace Mortensen 118.7 18:01.9 5000m Algona (IA) 2022-08-29
18 Isaac Wilson 118.0 18:08.7 5000m Algona (IA) 2022-08-29
19 Caleb Henderson 117.6 18:19 5000m North Polk (IA) 2020-09-01
20 Marshall Meyer 116.4 18:23.7 5000m Waverly-Shell Rock (IA) 2022-08-29
21 Jacob Willson 116.4 18:31 5000m Webster City (IA) 2020-09-01
22 Cooper Nuss 116.1 18:26.5 5000m Southeast Valley Gowrie (IA) 2022-08-29
23 Nolan Jergens 115.8 18:37 5000m Humboldt (IA) 2020-09-01
24 Ty Skartvedt 115.7 18:38 5000m South Hamilton Jewell (IA) 2020-09-01
25 Jayden Leland 115.4 18:33.9 5000m Ballard (WA) 2022-08-29
26 Trevor Jacobson 115.3 18:42 5000m Humboldt (IA) 2020-09-01
27 Landon Grove 114.9 18:38.1 5000m South Hamilton Jewell (IA) 2022-08-29
28 Sam Mericle 114.7 18:40.1 5000m St. Edmond Fort Dodge (IA) 2022-08-29
29 Nathan Limas 114.7 18:48 5000m Roland-Story Story City (IA) 2020-09-01
30 Lane Moline 114.6 18:41.9 5000m Manson Northwest Webster (IA) 2022-08-29
31 Jose Ramirez 114.0 18:55 5000m Webster City (IA) 2020-09-01
32 Bradley Sage 113.2 18:55.2 5000m Ballard (WA) 2022-08-29
33 Isaiah Nebbe 112.7 19:08 5000m Clarion-Goldfield-Dows (IA) 2020-09-01
34 Zane Haglund 112.7 19:08 5000m Roland-Story Story City (IA) 2020-09-01
35 Max Davidson 112.3 19:04.3 5000m Ballard (WA) 2022-08-29
36 Brayden Henely 112.3 19:04.7 5000m Webster City (IA) 2022-08-29
37 Cole Reiling 112.2 19:13 5000m Webster City (IA) 2020-09-01
38 Liam Shannon 112.1 19:07.2 5000m St. Edmond Fort Dodge (IA) 2022-08-29
39 Matthew Perin 111.9 19:16 5000m Webster City (IA) 2020-09-01
40 Quinn Lachelt 111.8 19:17 5000m Manson Northwest Webster (IA) 2020-09-01
41 Ronnie Orres 111.6 19:19 5000m St. Edmond Fort Dodge (IA) 2020-09-01
42 Carter Theesfeld 111.4 19:21 5000m Humboldt (IA) 2020-09-01
43 Aidan Kelsick 111.2 19:24 5000m North Polk (IA) 2020-09-01
44 Michael Wagner 111.1 19:17.3 5000m Fort Dodge (IA) 2022-08-29
45 Thade Lachelt 110.5 19:23.9 5000m Manson Northwest Webster (IA) 2022-08-29
46 Drake Weland 110.4 19:24.5 5000m Eagle Grove (IA) 2022-08-29
47 Logan Huntrods 110.3 19:25.8 5000m Ballard (WA) 2022-08-29
48 Nathaniel Winters 110.1 19:27.4 5000m Boone (FL) 2022-08-29
49 Kaeden Langfit 110.1 19:35 5000m Clarion-Goldfield-Dows (IA) 2020-09-01
50 Parker Newcomb 109.9 19:37 5000m Boone (FL) 2020-09-01
51 Barrett Morgan 109.8 19:31 5000m Algona (IA) 2022-08-29
52 Thomas Cosgrove 109.8 19:31.2 5000m St. Edmond Fort Dodge (IA) 2022-08-29
53 Aiden Christensen 109.5 19:42 5000m Humboldt (IA) 2020-09-01
54 Carter Delanoit 109.3 19:44 5000m Fort Dodge (IA) 2020-09-01
55 Carson Widlund 109.1 19:38.4 5000m Manson Northwest Webster (IA) 2022-08-29
56 Nolan Mandernach 109.1 19:38.8 5000m North Polk (IA) 2022-08-29
57 Evan Voga 108.9 19:40.9 5000m Roland-Story Story City (IA) 2022-08-29
58 Isaac Swenson 108.7 19:51 5000m Belmond-Klemme (IA) 2020-09-01
59 Anthony Valles 108.5 19:45.2 5000m St. Edmond Fort Dodge (IA) 2022-08-29
60 Oscar Hanson 108.5 19:53 5000m Southeast Valley Gowrie (IA) 2020-09-01

View all on the rankings board →

Girls

#AthleteRating TimeDistSchoolDate
1 Paityn Noe 147.9 17:23.6 5000m Ballard (WA) 2022-08-29
2 Moriah Knapp 129.6 19:53.4 5000m Algona (IA) 2022-08-29
3 Liza Schaffer 127.0 20:17.6 5000m North Polk (IA) 2022-08-29
4 Lydia Maas 126.4 20:25 5000m Hampton-Dumont-CAL (IA) 2020-09-01
5 Alyssa Richman 126.0 20:27.7 5000m Manson Northwest Webster (IA) 2022-08-29
6 Avelyn Vance 123.3 20:54.9 5000m Ballard (WA) 2022-08-29
7 Claire Truesdell 122.3 21:05.2 5000m Roland-Story Story City (IA) 2022-08-29
8 Reece Johnson 121.4 21:17 5000m Roland-Story Story City (IA) 2020-09-01
9 Aubrey Bemrich 120.4 21:27 5000m St. Edmond Fort Dodge (IA) 2020-09-01
10 Anna Lursen 120.3 21:27 5000m St. Edmond Fort Dodge (IA) 2022-08-29
11 Brynn Wilson 120.1 21:28.2 5000m Ballard (WA) 2022-08-29
12 Ava Richardson 120.1 21:28.8 5000m Ballard (WA) 2022-08-29
13 Annika Larson 120.1 21:29.2 5000m Ballard (WA) 2022-08-29
14 Maddie Moline 119.7 21:35 5000m Manson Northwest Webster (IA) 2020-09-01
15 Elizabeth Ihle 119.3 21:39 5000m Roland-Story Story City (IA) 2020-09-01
16 Michaela Leiting 119.1 21:39.2 5000m St. Edmond Fort Dodge (IA) 2022-08-29
17 Aubrie Kiesling 118.1 21:51.2 5000m North Polk (IA) 2022-08-29
18 Hannah Landwehr 117.8 21:53.9 5000m St. Edmond Fort Dodge (IA) 2022-08-29
19 Preslie Oswald 117.4 21:58.4 5000m Manson Northwest Webster (IA) 2022-08-29
20 Abby Bell 117.0 22:03.6 5000m North Polk (IA) 2022-08-29
21 Mary Walter 116.6 22:08 5000m North Polk (IA) 2022-08-29
22 Lauryn Kilstofte 115.2 22:24.1 5000m Roland-Story Story City (IA) 2022-08-29
23 Aleah McBee 115.0 22:29 5000m North Polk (IA) 2020-09-01
24 Moriah Bates 114.5 22:35 5000m Roland-Story Story City (IA) 2020-09-01
25 Makenna Carlson 114.2 22:36.5 5000m Roland-Story Story City (IA) 2022-08-29
26 Mya Bond 113.8 22:40.6 5000m North Polk (IA) 2022-08-29
27 Mckena Carlson 113.2 22:50 5000m Roland-Story Story City (IA) 2020-09-01
28 Hannah Haaland 112.2 23:00.8 5000m North Polk (IA) 2022-08-29
29 Ellie Knox 111.8 23:05.3 5000m St. Edmond Fort Dodge (IA) 2022-08-29
30 Carley Mullins 111.8 23:08 5000m Algona (IA) 2020-09-01
31 Kaylee Chesnut 111.5 23:09.9 5000m Boone (FL) 2022-08-29
32 Bailey Knights 111.0 23:17 5000m North Polk (IA) 2020-09-01
33 Malyn Davis 110.9 23:17.4 5000m Algona (IA) 2022-08-29
34 Morgan Meiners 110.9 23:17.4 5000m North Polk (IA) 2022-08-29
35 Lea Friedl 110.7 23:22 5000m Eagle Grove (IA) 2020-09-01
36 Brooklyn Helmers 110.3 23:26 5000m Algona (IA) 2020-09-01
37 Raven Kinnetz 110.2 23:28 5000m Clarion-Goldfield-Dows (IA) 2020-09-01
38 Bailey Janssen 110.2 23:28 5000m Roland-Story Story City (IA) 2020-09-01
39 Meg Zweibohmer 109.8 23:31.7 5000m Humboldt (IA) 2022-08-29
40 Paige Condon 109.7 23:35 5000m Manson Northwest Webster (IA) 2020-09-01
41 McKenzie Dee 109.6 23:33.3 5000m Ballard (WA) 2022-08-29
42 Lauren Meader 109.3 23:39 5000m Hampton-Dumont-CAL (IA) 2020-09-01
43 Joslyn Orr 109.3 23:40 5000m Humboldt (IA) 2020-09-01
44 Allison Hoag 109.2 23:41 5000m Humboldt (IA) 2020-09-01
45 Anna Patterson 108.9 23:43 5000m North Polk (IA) 2022-08-29
46 Reese Lemberg 108.9 23:45 5000m St. Edmond Fort Dodge (IA) 2020-09-01
47 Emma Peck 108.7 23:48 5000m Webster City (IA) 2020-09-01
48 Teaghan Bird 108.6 23:46.9 5000m Hampton-Dumont-CAL (IA) 2022-08-29
49 Anna Kolacia 108.5 23:48.4 5000m St. Edmond Fort Dodge (IA) 2022-08-29
50 Sophia Campbell 107.6 24:00.8 5000m North Polk (IA) 2022-08-29
51 Cadence Davenport 107.5 24:04 5000m North Polk (IA) 2020-09-01
52 Grace Smith 107.4 24:05 5000m Humboldt (IA) 2020-09-01
53 Gracie Harvey 107.3 24:06 5000m St. Edmond Fort Dodge (IA) 2020-09-01
54 Hailey Volz 107.3 24:07 5000m North Polk (IA) 2020-09-01
55 Kelli Kersten 107.0 24:11 5000m St. Edmond Fort Dodge (IA) 2020-09-01
56 Josie Dresen 106.9 24:12 5000m North Polk (IA) 2020-09-01
57 Sophia Rose 106.7 24:15 5000m Boone (FL) 2020-09-01
58 Sydney Buseman 106.6 24:16 5000m Hampton-Dumont-CAL (IA) 2020-09-01
59 Aleksandria Aljets 106.5 24:17 5000m Manson Northwest Webster (IA) 2020-09-01
60 Kali Beaman 106.0 24:24 5000m Humboldt (IA) 2020-09-01

View all on the rankings board →

Best team performances by rating top-5 average rating, one race, all distances

Boys

#SchoolTop-5 avg DistMeetDate
1 North Polk (IA) 127.5 5000m Webster City Cross Country Invitational 2022-08-29
2 Humboldt (IA) 119.6 5000m Lynx Invitational 2020-09-01
3 Algona (IA) 117.6 5000m Webster City Cross Country Invitational 2022-08-29
4 Ballard (WA) 116.3 5000m Webster City Cross Country Invitational 2022-08-29
5 Waverly-Shell Rock (IA) 115.2 5000m Webster City Cross Country Invitational 2022-08-29
6 St. Edmond Fort Dodge (IA) 113.6 5000m Webster City Cross Country Invitational 2022-08-29
7 Webster City (IA) 111.5 5000m Lynx Invitational 2020-09-01
8 Roland-Story Story City (IA) 109.2 5000m Lynx Invitational 2020-09-01
9 Fort Dodge (IA) 108.6 5000m Webster City Cross Country Invitational 2022-08-29
10 Manson Northwest Webster (IA) 107.9 5000m Webster City Cross Country Invitational 2022-08-29
11 Boone (FL) 106.0 5000m Lynx Invitational 2020-09-01
12 Eagle Grove (IA) 105.7 5000m Webster City Cross Country Invitational 2022-08-29
13 Clarion-Goldfield-Dows (IA) 105.7 5000m Lynx Invitational 2020-09-01
14 South Hamilton Jewell (IA) 105.5 5000m Lynx Invitational 2020-09-01
15 Southeast Valley Gowrie (IA) 105.4 5000m Lynx Invitational 2020-09-01
16 Hampton-Dumont-CAL (IA) 103.9 5000m Lynx Invitational 2020-09-01
17 Belmond-Klemme (IA) 98.1 5000m Webster City Cross Country Invitational 2022-08-29

View all on the rankings board →

Girls

#SchoolTop-5 avg DistMeetDate
1 Ballard (WA) 126.3 5000m Webster City Cross Country Invitational 2022-08-29
2 North Polk (IA) 118.5 5000m Webster City Cross Country Invitational 2022-08-29
3 Roland-Story Story City (IA) 115.8 5000m Lynx Invitational 2020-09-01
4 St. Edmond Fort Dodge (IA) 115.5 5000m Webster City Cross Country Invitational 2022-08-29
5 Algona (IA) 110.5 5000m Webster City Cross Country Invitational 2022-08-29
6 Manson Northwest Webster (IA) 109.1 5000m Webster City Cross Country Invitational 2022-08-29
7 Humboldt (IA) 105.8 5000m Lynx Invitational 2020-09-01
8 Fort Dodge (IA) 101.2 5000m Lynx Invitational 2020-09-01
9 South Hamilton Jewell (IA) 101.0 5000m Lynx Invitational 2020-09-01
10 Webster City (IA) 98.8 5000m Lynx Invitational 2020-09-01
11 Southeast Valley Gowrie (IA) 95.4 5000m Lynx Invitational 2020-09-01
12 Eagle Grove (IA) 93.6 5000m Webster City Cross Country Invitational 2022-08-29
13 Boone (FL) 91.9 5000m Lynx Invitational 2020-09-01

View all on the rankings board →

Meets held here all distances

MeetLast heldDistanceResults
Webster City Cross Country Invitational 2022-08-29 5000 239
Lynx Invitational 2020-09-01 5000 375

All meets at this course →